createdAt,value
2017-08-09T00:00:57.336Z,14.14
2017-08-09T00:01:57.639Z,14.13
2017-08-09T00:02:57.634Z,14.13
2017-08-09T00:03:57.617Z,14.16
2017-08-09T00:04:57.596Z,14.16
2017-08-09T00:05:57.272Z,14.14
2017-08-09T00:06:57.568Z,14.12
2017-08-09T00:07:57.873Z,14.2
2017-08-09T00:08:57.865Z,14.14
2017-08-09T00:09:57.840Z,14.16
2017-08-09T00:10:57.829Z,14.19
2017-08-09T00:11:57.814Z,14.25
2017-08-09T00:12:57.847Z,14.19
2017-08-09T00:13:57.481Z,14.29
2017-08-09T00:14:57.464Z,14.28
2017-08-09T00:15:57.764Z,14.28
2017-08-09T00:16:57.445Z,14.39
2017-08-09T00:17:57.735Z,14.38
2017-08-09T00:18:57.413Z,14.35
2017-08-09T00:19:57.398Z,14.42
2017-08-09T00:20:57.079Z,14.46
2017-08-09T00:21:57.375Z,14.43
2017-08-09T00:22:57.673Z,14.46
2017-08-09T00:23:57.664Z,14.47
2017-08-09T00:24:57.333Z,14.47
2017-08-09T00:25:57.319Z,14.49
2017-08-09T00:26:57.620Z,14.49
2017-08-09T00:27:57.300Z,14.49
2017-08-09T00:28:57.594Z,14.49
2017-08-09T00:29:57.641Z,14.52
2017-08-09T00:30:57.257Z,14.49
2017-08-09T00:31:57.244Z,14.53
2017-08-09T00:32:57.230Z,14.53
2017-08-09T00:33:57.526Z,14.5
2017-08-09T00:34:57.206Z,14.49
2017-08-09T00:35:57.192Z,14.52
2017-08-09T00:36:57.182Z,14.54
2017-08-09T00:37:57.169Z,14.52
2017-08-09T00:38:57.467Z,14.5
2017-08-09T00:39:57.454Z,14.53
2017-08-09T00:40:57.135Z,14.57
2017-08-09T00:41:57.428Z,14.54
2017-08-09T00:42:57.415Z,14.56
2017-08-09T00:43:57.094Z,14.52
2017-08-09T00:44:57.074Z,14.54
2017-08-09T00:45:56.751Z,14.62
2017-08-09T00:46:56.777Z,14.56
2017-08-09T00:47:57.032Z,14.64
2017-08-09T00:48:57.029Z,14.64
2017-08-09T00:49:57.328Z,14.62
2017-08-09T00:50:57.317Z,14.54
2017-08-09T00:51:57.298Z,14.61
2017-08-09T00:52:57.294Z,14.54
2017-08-09T00:53:56.979Z,14.54
2017-08-09T00:54:56.956Z,14.53
2017-08-09T00:55:56.934Z,14.54
2017-08-09T00:56:57.235Z,14.65
2017-08-09T00:57:56.598Z,14.6
2017-08-09T00:58:56.897Z,14.71
2017-08-09T00:59:56.887Z,14.67
2017-08-09T01:00:56.871Z,14.71
2017-08-09T01:01:56.866Z,14.68
2017-08-09T01:02:56.846Z,14.71
2017-08-09T01:03:57.145Z,14.65
2017-08-09T01:04:57.158Z,14.71
2017-08-09T01:05:57.120Z,14.81
2017-08-09T01:06:56.482Z,14.81
2017-08-09T01:07:56.784Z,14.75
2017-08-09T01:08:57.086Z,14.75
2017-08-09T01:09:56.754Z,14.75
2017-08-09T01:10:56.433Z,14.84
2017-08-09T01:11:57.053Z,14.72
2017-08-09T01:12:57.034Z,14.84
2017-08-09T01:13:57.024Z,14.87
2017-08-09T01:14:56.699Z,14.84
2017-08-09T01:15:56.683Z,14.84
2017-08-09T01:16:56.675Z,14.86
2017-08-09T01:17:57.026Z,14.78
2017-08-09T01:18:56.650Z,14.98
2017-08-09T01:19:56.640Z,14.93
2017-08-09T01:20:56.929Z,14.91
2017-08-09T01:21:56.296Z,14.87
2017-08-09T01:22:56.279Z,14.8
2017-08-09T01:23:56.580Z,14.84
2017-08-09T01:24:56.879Z,14.9
2017-08-09T01:25:56.556Z,14.88
2017-08-09T01:26:56.854Z,14.88
2017-08-09T01:27:56.532Z,14.87
2017-08-09T01:28:56.520Z,14.81
2017-08-09T01:29:56.823Z,14.86
2017-08-09T01:30:56.495Z,14.83
2017-08-09T01:31:56.167Z,14.84
2017-08-09T01:32:56.777Z,14.81
2017-08-09T01:33:56.766Z,14.8
2017-08-09T01:34:56.444Z,14.93
2017-08-09T01:35:56.432Z,14.86
2017-08-09T01:36:56.105Z,14.94
2017-08-09T01:37:56.405Z,14.93
2017-08-09T01:38:56.714Z,14.95
2017-08-09T01:39:56.374Z,14.93
2017-08-09T01:40:56.086Z,14.91
2017-08-09T01:41:56.671Z,14.94
2017-08-09T01:42:56.653Z,14.95
2017-08-09T01:43:56.019Z,14.91
2017-08-09T01:44:56.323Z,14.94
2017-08-09T01:45:56.616Z,14.91
2017-08-09T01:46:56.289Z,14.94
2017-08-09T01:47:56.593Z,14.94
2017-08-09T01:48:56.582Z,14.93
2017-08-09T01:49:56.254Z,14.95
2017-08-09T01:50:56.559Z,14.93
2017-08-09T01:51:56.233Z,14.9
2017-08-09T01:52:56.227Z,14.95
2017-08-09T01:53:56.203Z,14.93
2017-08-09T01:54:55.879Z,14.87
2017-08-09T01:55:56.187Z,14.93
2017-08-09T01:56:56.483Z,14.9
2017-08-09T01:57:55.843Z,14.94
2017-08-09T01:58:56.138Z,14.99
2017-08-09T01:59:56.441Z,14.93
2017-08-09T02:00:56.429Z,14.99
2017-08-09T02:01:56.109Z,14.93
2017-08-09T02:02:55.775Z,15.01
2017-08-09T02:03:56.390Z,14.98
2017-08-09T02:04:56.070Z,14.98
2017-08-09T02:05:56.061Z,14.99
2017-08-09T02:06:56.047Z,14.99
2017-08-09T02:07:56.027Z,15.01
2017-08-09T02:08:56.013Z,15.11
2017-08-09T02:09:56.320Z,15.06
2017-08-09T02:10:56.301Z,15.17
2017-08-09T02:11:55.982Z,15.02
2017-08-09T02:12:55.649Z,15.12
2017-08-09T02:13:55.951Z,15.06
2017-08-09T02:14:55.623Z,15.06
2017-08-09T02:15:56.236Z,15.02
2017-08-09T02:16:55.921Z,15.08
2017-08-09T02:17:56.221Z,15.05
2017-08-09T02:18:56.199Z,15.11
2017-08-09T02:19:55.874Z,15.09
2017-08-09T02:20:55.870Z,15.08
2017-08-09T02:21:56.171Z,15.13
2017-08-09T02:22:55.528Z,15.09
2017-08-09T02:23:56.138Z,15.12
2017-08-09T02:24:56.124Z,15.19
2017-08-09T02:25:55.484Z,15.17
2017-08-09T02:26:55.468Z,15.09
2017-08-09T02:27:56.087Z,15.17
2017-08-09T02:28:55.447Z,15.11
2017-08-09T02:29:56.058Z,15.13
2017-08-09T02:30:55.420Z,15.13
2017-08-09T02:31:55.411Z,15.21
2017-08-09T02:32:56.035Z,15.12
2017-08-09T02:33:56.008Z,15.17
2017-08-09T02:34:55.689Z,15.11
2017-08-09T02:35:55.678Z,15.12
2017-08-09T02:36:55.970Z,15.27
2017-08-09T02:37:55.992Z,15.21
2017-08-09T02:38:55.953Z,15.23
2017-08-09T02:39:55.943Z,15.19
2017-08-09T02:40:55.956Z,15.15
2017-08-09T02:41:55.591Z,15.2
2017-08-09T02:42:55.271Z,15.23
2017-08-09T02:43:55.578Z,15.28
2017-08-09T02:44:55.242Z,15.26
2017-08-09T02:45:55.866Z,15.26
2017-08-09T02:46:55.529Z,15.21
2017-08-09T02:47:55.207Z,15.28
2017-08-09T02:48:55.194Z,15.41
2017-08-09T02:49:55.805Z,15.39
2017-08-09T02:50:55.169Z,15.36
2017-08-09T02:51:55.467Z,15.43
2017-08-09T02:52:55.769Z,15.48
2017-08-09T02:53:55.755Z,15.46
2017-08-09T02:54:55.741Z,15.42
2017-08-09T02:55:55.414Z,15.51
2017-08-09T02:56:55.727Z,15.49
2017-08-09T02:57:55.391Z,15.61
2017-08-09T02:58:55.066Z,15.61
2017-08-09T02:59:55.363Z,15.59
2017-08-09T03:00:55.659Z,15.64
2017-08-09T03:01:55.032Z,15.63
2017-08-09T03:02:55.324Z,15.68
2017-08-09T03:03:55.314Z,15.66
2017-08-09T03:04:55.322Z,15.67
2017-08-09T03:05:55.603Z,15.74
2017-08-09T03:06:55.600Z,15.75
2017-08-09T03:07:55.571Z,15.76
2017-08-09T03:08:55.562Z,15.7
2017-08-09T03:09:54.931Z,15.79
2017-08-09T03:10:55.538Z,15.74
2017-08-09T03:11:55.520Z,15.7
2017-08-09T03:12:55.401Z,15.75
2017-08-09T03:13:55.499Z,15.75
2017-08-09T03:14:55.174Z,15.82
2017-08-09T03:15:55.469Z,15.74
2017-08-09T03:16:55.148Z,15.82
2017-08-09T03:17:54.818Z,15.72
2017-08-09T03:18:55.438Z,15.76
2017-08-09T03:19:55.117Z,15.78
2017-08-09T03:20:55.410Z,15.74
2017-08-09T03:21:55.083Z,15.74
2017-08-09T03:22:55.381Z,15.74
2017-08-09T03:23:55.371Z,15.72
2017-08-09T03:24:55.355Z,15.64
2017-08-09T03:25:55.030Z,15.6
2017-08-09T03:26:55.028Z,15.64
2017-08-09T03:27:55.320Z,15.64
2017-08-09T03:28:54.679Z,15.6
2017-08-09T03:29:55.346Z,15.6
2017-08-09T03:30:55.312Z,15.61
2017-08-09T03:31:54.645Z,15.64
2017-08-09T03:32:54.939Z,15.56
2017-08-09T03:33:54.929Z,15.6
2017-08-09T03:34:55.120Z,15.67
2017-08-09T03:35:55.213Z,15.59
2017-08-09T03:36:54.890Z,15.66
2017-08-09T03:37:54.877Z,15.59
2017-08-09T03:38:54.866Z,15.52
2017-08-09T03:39:55.168Z,15.59
2017-08-09T03:40:54.843Z,15.49
2017-08-09T03:41:55.141Z,15.56
2017-08-09T03:42:55.124Z,15.56
2017-08-09T03:43:55.118Z,15.61
2017-08-09T03:44:55.152Z,15.66
2017-08-09T03:45:54.778Z,15.61
2017-08-09T03:46:55.088Z,15.66
2017-08-09T03:47:54.757Z,15.67
2017-08-09T03:48:54.739Z,15.59
2017-08-09T03:49:54.729Z,15.68
2017-08-09T03:50:54.717Z,15.68
2017-08-09T03:51:54.406Z,15.7
2017-08-09T03:52:54.687Z,15.7
2017-08-09T03:53:54.994Z,15.64
2017-08-09T03:54:54.987Z,15.74
2017-08-09T03:55:54.967Z,15.64
2017-08-09T03:56:54.953Z,15.64
2017-08-09T03:57:54.941Z,15.68
2017-08-09T03:58:54.621Z,15.66
2017-08-09T03:59:54.616Z,15.76
2017-08-09T04:00:54.938Z,15.72
2017-08-09T04:01:54.890Z,15.75
2017-08-09T04:02:54.447Z,15.74
2017-08-09T04:03:54.553Z,15.74
2017-08-09T04:04:54.857Z,15.78
2017-08-09T04:05:54.836Z,15.72
2017-08-09T04:06:54.826Z,15.78
2017-08-09T04:07:54.817Z,15.67
2017-08-09T04:08:54.493Z,15.75
2017-08-09T04:09:54.791Z,15.7
2017-08-09T04:10:54.154Z,15.75
2017-08-09T04:11:54.153Z,15.76
2017-08-09T04:12:54.129Z,15.68
2017-08-09T04:13:54.745Z,15.72
2017-08-09T04:14:54.443Z,15.72
2017-08-09T04:15:54.403Z,15.74
2017-08-09T04:16:54.390Z,15.67
2017-08-09T04:17:54.377Z,15.7
2017-08-09T04:18:54.683Z,15.74
2017-08-09T04:19:54.664Z,15.79
2017-08-09T04:20:54.339Z,15.72
2017-08-09T04:21:54.639Z,15.75
2017-08-09T04:22:54.316Z,15.7
2017-08-09T04:23:54.304Z,15.81
2017-08-09T04:24:54.291Z,15.76
2017-08-09T04:25:54.279Z,15.79
2017-08-09T04:26:54.576Z,15.81
2017-08-09T04:27:54.571Z,15.74
2017-08-09T04:28:54.242Z,15.86
2017-08-09T04:29:54.231Z,15.78
2017-08-09T04:30:54.225Z,15.79
2017-08-09T04:31:54.207Z,15.79
2017-08-09T04:32:54.193Z,15.82
2017-08-09T04:33:54.498Z,15.88
2017-08-09T04:34:54.242Z,15.94
2017-08-09T04:35:54.156Z,15.84
2017-08-09T04:36:54.146Z,15.88
2017-08-09T04:37:53.824Z,15.88
2017-08-09T04:38:54.431Z,15.92
2017-08-09T04:39:54.419Z,15.94
2017-08-09T04:40:54.411Z,15.94
2017-08-09T04:41:54.391Z,15.97
2017-08-09T04:42:54.075Z,16.03
2017-08-09T04:43:54.397Z,16.03
2017-08-09T04:44:54.050Z,16.06
2017-08-09T04:45:54.039Z,16.06
2017-08-09T04:46:54.334Z,16.15
2017-08-09T04:47:53.693Z,16.14
2017-08-09T04:48:54.013Z,16.07
2017-08-09T04:49:54.297Z,16.14
2017-08-09T04:50:54.306Z,16.18
2017-08-09T04:51:54.266Z,16.15
2017-08-09T04:52:53.968Z,16.16
2017-08-09T04:53:53.938Z,16.16
2017-08-09T04:54:54.236Z,16.18
2017-08-09T04:55:53.908Z,16.22
2017-08-09T04:56:54.211Z,16.27
2017-08-09T04:57:54.200Z,16.33
2017-08-09T04:58:53.567Z,16.3
2017-08-09T04:59:53.858Z,16.25
2017-08-09T05:00:54.165Z,16.26
2017-08-09T05:01:53.836Z,16.33
2017-08-09T05:02:53.506Z,16.26
2017-08-09T05:03:53.812Z,16.31
2017-08-09T05:04:53.796Z,16.33
2017-08-09T05:05:54.100Z,16.34
2017-08-09T05:06:53.770Z,16.34
2017-08-09T05:07:54.074Z,16.26
2017-08-09T05:08:53.745Z,16.33
2017-08-09T05:09:54.048Z,16.31
2017-08-09T05:10:53.719Z,16.34
2017-08-09T05:11:53.709Z,16.27
2017-08-09T05:12:53.695Z,16.26
2017-08-09T05:13:53.699Z,16.33
2017-08-09T05:14:53.675Z,16.35
2017-08-09T05:15:53.656Z,16.31
2017-08-09T05:16:53.342Z,16.34
2017-08-09T05:17:53.323Z,16.34
2017-08-09T05:18:53.937Z,16.26
2017-08-09T05:19:53.938Z,16.33
2017-08-09T05:20:53.910Z,16.27
2017-08-09T05:21:53.585Z,16.34
2017-08-09T05:22:53.580Z,16.33
2017-08-09T05:23:53.881Z,16.33
2017-08-09T05:24:53.550Z,16.37
2017-08-09T05:25:53.542Z,16.41
2017-08-09T05:26:53.216Z,16.35
2017-08-09T05:27:53.515Z,16.34
2017-08-09T05:28:53.509Z,16.33
2017-08-09T05:29:53.801Z,16.37
2017-08-09T05:30:53.485Z,16.42
2017-08-09T05:31:53.778Z,16.33
2017-08-09T05:32:53.476Z,16.34
2017-08-09T05:33:53.441Z,16.27
2017-08-09T05:34:53.630Z,16.27
2017-08-09T05:35:53.728Z,16.3
2017-08-09T05:36:53.724Z,16.26
2017-08-09T05:37:53.716Z,16.34
2017-08-09T05:38:53.064Z,16.26
2017-08-09T05:39:53.680Z,16.26
2017-08-09T05:40:53.355Z,16.27
2017-08-09T05:41:53.345Z,16.3
2017-08-09T05:42:53.642Z,16.26
2017-08-09T05:43:53.627Z,16.3
2017-08-09T05:44:53.307Z,16.25
2017-08-09T05:45:53.606Z,16.23
2017-08-09T05:46:53.597Z,16.26
2017-08-09T05:47:53.268Z,16.3
2017-08-09T05:48:53.266Z,16.18
2017-08-09T05:49:53.560Z,16.26
2017-08-09T05:50:52.914Z,16.26
2017-08-09T05:51:53.224Z,16.23
2017-08-09T05:52:53.524Z,16.2
2017-08-09T05:53:53.200Z,16.26
2017-08-09T05:54:53.182Z,16.26
2017-08-09T05:55:52.856Z,16.26
2017-08-09T05:56:53.471Z,16.26
2017-08-09T05:57:53.462Z,16.25
2017-08-09T05:58:53.333Z,16.33
2017-08-09T05:59:53.430Z,16.35
2017-08-09T06:00:53.108Z,16.34
2017-08-09T06:01:53.405Z,16.27
2017-08-09T06:02:53.083Z,16.27
2017-08-09T06:03:53.071Z,16.3
2017-08-09T06:04:53.065Z,16.33
2017-08-09T06:05:53.044Z,16.3
2017-08-09T06:06:53.033Z,16.26
2017-08-09T06:07:53.335Z,16.35
2017-08-09T06:08:53.329Z,16.4
2017-08-09T06:09:53.312Z,16.41
2017-08-09T06:10:52.985Z,16.31
2017-08-09T06:11:52.975Z,16.38
2017-08-09T06:12:53.269Z,16.41
2017-08-09T06:13:53.308Z,16.38
2017-08-09T06:14:52.944Z,16.37
2017-08-09T06:15:52.923Z,16.37
2017-08-09T06:16:52.909Z,16.34
2017-08-09T06:17:52.602Z,16.37
2017-08-09T06:18:52.890Z,16.41
2017-08-09T06:19:52.878Z,16.33
2017-08-09T06:20:53.176Z,16.38
2017-08-09T06:21:52.853Z,16.42
2017-08-09T06:22:53.156Z,16.42
2017-08-09T06:23:52.824Z,16.42
2017-08-09T06:24:53.126Z,16.4
2017-08-09T06:25:53.117Z,16.38
2017-08-09T06:26:52.798Z,16.41
2017-08-09T06:27:52.779Z,16.34
2017-08-09T06:28:53.091Z,16.4
2017-08-09T06:29:53.073Z,16.4
2017-08-09T06:30:53.057Z,16.48
2017-08-09T06:31:53.045Z,16.42
2017-08-09T06:32:52.720Z,16.42
2017-08-09T06:33:53.021Z,16.41
2017-08-09T06:34:52.697Z,16.37
2017-08-09T06:35:52.685Z,16.37
2017-08-09T06:36:52.987Z,16.42
2017-08-09T06:37:52.352Z,16.44
2017-08-09T06:38:52.642Z,16.41
2017-08-09T06:39:52.320Z,16.4
2017-08-09T06:40:52.935Z,16.37
2017-08-09T06:41:52.928Z,16.45
2017-08-09T06:42:52.596Z,16.42
2017-08-09T06:43:52.586Z,16.5
2017-08-09T06:44:52.257Z,16.5
2017-08-09T06:45:52.560Z,16.53
2017-08-09T06:46:52.550Z,16.45
2017-08-09T06:47:52.538Z,16.41
2017-08-09T06:48:52.846Z,16.53
2017-08-09T06:49:52.228Z,16.48
2017-08-09T06:50:52.502Z,16.55
2017-08-09T06:51:52.487Z,16.49
2017-08-09T06:52:52.787Z,16.5
2017-08-09T06:53:52.463Z,16.5
2017-08-09T06:54:52.768Z,16.56
2017-08-09T06:55:52.450Z,16.62
2017-08-09T06:56:52.114Z,16.6
2017-08-09T06:57:52.415Z,16.62
2017-08-09T06:58:52.399Z,16.63
2017-08-09T06:59:52.407Z,16.59
2017-08-09T07:00:52.733Z,16.59
2017-08-09T07:01:52.680Z,16.65
2017-08-09T07:02:52.384Z,16.62
2017-08-09T07:03:52.660Z,16.67
2017-08-09T07:04:52.716Z,16.63
2017-08-09T07:05:52.327Z,16.73
2017-08-09T07:06:52.311Z,16.74
2017-08-09T07:07:52.615Z,16.7
2017-08-09T07:08:52.600Z,16.78
2017-08-09T07:09:52.594Z,16.71
2017-08-09T07:10:52.577Z,16.7
2017-08-09T07:11:52.581Z,16.78
2017-08-09T07:12:52.553Z,16.83
2017-08-09T07:13:51.918Z,16.86
2017-08-09T07:14:52.531Z,16.78
2017-08-09T07:15:51.894Z,16.78
2017-08-09T07:16:52.513Z,16.85
2017-08-09T07:17:52.179Z,16.81
2017-08-09T07:18:52.484Z,16.95
2017-08-09T07:19:52.674Z,16.89
2017-08-09T07:20:52.459Z,16.9
2017-08-09T07:21:52.133Z,17.04
2017-08-09T07:22:52.121Z,17
2017-08-09T07:23:52.109Z,17.03
2017-08-09T07:24:52.410Z,17.03
2017-08-09T07:25:52.092Z,17.08
2017-08-09T07:26:52.078Z,17.1
2017-08-09T07:27:51.755Z,17.06
2017-08-09T07:28:52.057Z,16.98
2017-08-09T07:29:52.042Z,16.99
2017-08-09T07:30:52.028Z,17.08
2017-08-09T07:31:52.333Z,17.11
2017-08-09T07:32:52.320Z,17.07
2017-08-09T07:33:52.307Z,17.15
2017-08-09T07:34:52.504Z,17.22
2017-08-09T07:35:51.970Z,17.26
2017-08-09T07:36:51.656Z,17.32
2017-08-09T07:37:52.267Z,17.36
2017-08-09T07:38:51.937Z,17.36
2017-08-09T07:39:52.241Z,17.54
2017-08-09T07:40:51.620Z,17.47
2017-08-09T07:41:52.217Z,17.59
2017-08-09T07:42:51.896Z,17.7
2017-08-09T07:43:52.196Z,17.59
2017-08-09T07:44:51.560Z,17.69
2017-08-09T07:45:51.859Z,17.81
2017-08-09T07:46:51.540Z,17.89
2017-08-09T07:47:51.529Z,18.12
2017-08-09T07:48:51.833Z,18.24
2017-08-09T07:49:52.331Z,18.29
2017-08-09T07:50:51.808Z,18.4
2017-08-09T07:51:51.494Z,18.5
2017-08-09T07:52:52.096Z,18.62
2017-08-09T07:53:51.781Z,18.54
2017-08-09T07:54:52.083Z,18.64
2017-08-09T07:55:51.761Z,18.54
2017-08-09T07:56:52.064Z,18.4
2017-08-09T07:57:51.781Z,18.4
2017-08-09T07:58:51.418Z,18.37
2017-08-09T07:59:51.717Z,18.39
2017-08-09T08:00:51.398Z,18.27
2017-08-09T08:01:52.013Z,18.18
2017-08-09T08:02:51.998Z,18.22
2017-08-09T08:03:51.678Z,18.25
2017-08-09T08:04:51.351Z,18.28
2017-08-09T08:05:51.972Z,18.15
2017-08-09T08:06:51.960Z,18.12
2017-08-09T08:07:51.332Z,18.21
2017-08-09T08:08:51.629Z,18.21
2017-08-09T08:09:51.941Z,18.24
2017-08-09T08:10:51.918Z,18.12
2017-08-09T08:11:51.917Z,18.06
2017-08-09T08:12:51.598Z,18.09
2017-08-09T08:13:51.269Z,18.13
2017-08-09T08:14:51.889Z,18.17
2017-08-09T08:15:51.879Z,18.21
2017-08-09T08:16:51.883Z,18.15
2017-08-09T08:17:51.855Z,18.12
2017-08-09T08:18:51.216Z,18.19
2017-08-09T08:19:51.833Z,18.22
2017-08-09T08:20:51.818Z,18.31
2017-08-09T08:21:51.501Z,18.42
2017-08-09T08:22:51.489Z,18.49
2017-08-09T08:23:51.479Z,18.39
2017-08-09T08:24:51.782Z,18.34
2017-08-09T08:25:51.779Z,18.22
2017-08-09T08:26:51.445Z,18.24
2017-08-09T08:27:51.757Z,18.25
2017-08-09T08:28:51.745Z,18.22
2017-08-09T08:29:51.746Z,18.36
2017-08-09T08:30:51.409Z,18.36
2017-08-09T08:31:51.089Z,18.43
2017-08-09T08:32:51.386Z,18.5
2017-08-09T08:33:51.690Z,18.5
2017-08-09T08:34:51.683Z,18.76
2017-08-09T08:35:51.043Z,18.91
2017-08-09T08:36:51.352Z,18.9
2017-08-09T08:37:51.022Z,18.99
2017-08-09T08:38:51.336Z,19.14
2017-08-09T08:39:51.330Z,19.23
2017-08-09T08:40:51.630Z,19.11
2017-08-09T08:41:51.612Z,19.18
2017-08-09T08:42:51.604Z,19.25
2017-08-09T08:43:51.597Z,19.36
2017-08-09T08:44:51.272Z,19.36
2017-08-09T08:45:51.681Z,19.47
2017-08-09T08:46:51.256Z,19.63
2017-08-09T08:47:51.556Z,19.68
2017-08-09T08:48:51.244Z,19.75
2017-08-09T08:49:51.550Z,19.69
2017-08-09T08:50:51.536Z,19.72
2017-08-09T08:51:50.898Z,19.75
2017-08-09T08:52:51.201Z,19.6
2017-08-09T08:53:51.504Z,19.6
2017-08-09T08:54:51.495Z,19.54
2017-08-09T08:55:51.512Z,19.54
2017-08-09T08:56:51.190Z,19.42
2017-08-09T08:57:51.470Z,19.53
2017-08-09T08:58:51.454Z,19.53
2017-08-09T08:59:51.140Z,19.46
2017-08-09T09:00:51.132Z,19.39
2017-08-09T09:01:51.430Z,19.38
2017-08-09T09:02:51.106Z,19.35
2017-08-09T09:03:50.789Z,19.33
2017-08-09T09:04:51.408Z,19.23
2017-08-09T09:05:51.400Z,19.28
2017-08-09T09:06:50.763Z,19.24
2017-08-09T09:07:51.380Z,19.24
2017-08-09T09:08:51.052Z,19.33
2017-08-09T09:09:51.360Z,19.33
2017-08-09T09:10:51.357Z,19.29
2017-08-09T09:11:50.716Z,19.33
2017-08-09T09:12:51.332Z,19.33
2017-08-09T09:13:51.326Z,19.35
2017-08-09T09:14:51.332Z,19.31
2017-08-09T09:15:51.324Z,19.46
2017-08-09T09:16:50.676Z,19.39
2017-08-09T09:17:50.976Z,19.46
2017-08-09T09:18:51.282Z,19.54
2017-08-09T09:19:50.956Z,19.6
2017-08-09T09:20:50.947Z,19.7
2017-08-09T09:21:51.254Z,19.75
2017-08-09T09:22:50.928Z,19.76
2017-08-09T09:23:50.925Z,19.9
2017-08-09T09:24:50.916Z,19.97
2017-08-09T09:25:50.910Z,19.97
2017-08-09T09:26:51.206Z,20.05
2017-08-09T09:27:50.889Z,20.06
2017-08-09T09:28:50.884Z,19.97
2017-08-09T09:29:50.877Z,19.91
2017-08-09T09:30:50.861Z,19.84
2017-08-09T09:31:51.170Z,19.84
2017-08-09T09:32:51.160Z,19.75
2017-08-09T09:33:50.833Z,19.8
2017-08-09T09:34:51.032Z,19.83
2017-08-09T09:35:50.504Z,19.8
2017-08-09T09:36:50.813Z,19.75
2017-08-09T09:37:51.156Z,19.73
2017-08-09T09:38:51.111Z,19.78
2017-08-09T09:39:51.104Z,19.87
2017-08-09T09:40:50.478Z,19.83
2017-08-09T09:41:50.772Z,19.86
2017-08-09T09:42:50.445Z,19.79
2017-08-09T09:43:51.063Z,19.78
2017-08-09T09:44:51.050Z,19.87
2017-08-09T09:45:50.742Z,19.95
2017-08-09T09:46:51.045Z,19.93
2017-08-09T09:47:50.399Z,19.94
2017-08-09T09:48:50.758Z,19.98
2017-08-09T09:49:50.703Z,20.12
2017-08-09T09:50:50.692Z,20.13
2017-08-09T09:51:50.992Z,20.23
2017-08-09T09:52:50.361Z,20.23
2017-08-09T09:53:50.410Z,20.27
2017-08-09T09:54:50.348Z,20.28
2017-08-09T09:55:50.339Z,20.24
2017-08-09T09:56:50.637Z,20.18
2017-08-09T09:57:50.631Z,20.13
2017-08-09T09:58:50.358Z,20.08
2017-08-09T09:59:50.309Z,20.15
2017-08-09T10:00:50.915Z,20.09
2017-08-09T10:01:50.908Z,20.2
2017-08-09T10:02:50.591Z,20.24
2017-08-09T10:03:50.580Z,20.2
2017-08-09T10:04:50.889Z,20.12
2017-08-09T10:05:50.878Z,20.2
2017-08-09T10:06:50.862Z,20.13
2017-08-09T10:07:50.872Z,20.16
2017-08-09T10:08:50.884Z,20.1
2017-08-09T10:09:50.840Z,20.05
2017-08-09T10:10:50.832Z,20
2017-08-09T10:11:50.510Z,19.95
2017-08-09T10:12:50.194Z,20
2017-08-09T10:13:50.497Z,20.02
2017-08-09T10:14:50.501Z,19.98
2017-08-09T10:15:50.484Z,20.06
2017-08-09T10:16:50.786Z,20.08
2017-08-09T10:17:50.795Z,20.1
2017-08-09T10:18:50.773Z,20.12
2017-08-09T10:19:50.448Z,20.2
2017-08-09T10:20:50.124Z,20.31
2017-08-09T10:21:50.430Z,20.42
2017-08-09T10:22:50.730Z,20.47
2017-08-09T10:23:50.732Z,20.59
2017-08-09T10:24:50.408Z,20.79
2017-08-09T10:25:50.706Z,20.91
2017-08-09T10:26:50.390Z,20.98
2017-08-09T10:27:50.390Z,20.93
2017-08-09T10:28:50.736Z,21.11
2017-08-09T10:29:50.059Z,21.08
2017-08-09T10:30:50.671Z,21.08
2017-08-09T10:31:50.666Z,21.09
2017-08-09T10:32:50.667Z,21.04
2017-08-09T10:33:50.338Z,20.93
2017-08-09T10:34:50.020Z,20.99
2017-08-09T10:35:50.008Z,20.98
2017-08-09T10:36:50.311Z,20.99
2017-08-09T10:37:50.315Z,21.05
2017-08-09T10:38:50.301Z,21.41
2017-08-09T10:39:50.299Z,21.83
2017-08-09T10:40:50.603Z,21.95
2017-08-09T10:41:50.595Z,22.01
2017-08-09T10:42:50.587Z,22.09
2017-08-09T10:43:50.269Z,22.17
2017-08-09T10:44:50.321Z,22.47
2017-08-09T10:45:50.263Z,22.37
2017-08-09T10:46:49.943Z,22.27
2017-08-09T10:47:49.961Z,21.99
2017-08-09T10:48:50.554Z,21.95
2017-08-09T10:49:50.267Z,22.12
2017-08-09T10:50:49.916Z,22.72
2017-08-09T10:51:50.228Z,22.93
2017-08-09T10:52:50.535Z,23.35
2017-08-09T10:53:50.213Z,23.94
2017-08-09T10:54:50.525Z,23.57
2017-08-09T10:55:50.207Z,24.19
2017-08-09T10:56:50.205Z,24.73
2017-08-09T10:57:50.197Z,25.31
2017-08-09T10:58:50.518Z,25.24
2017-08-09T10:59:50.192Z,25.46
2017-08-09T11:00:50.255Z,25.8
2017-08-09T11:01:50.501Z,25.61
2017-08-09T11:02:49.874Z,25.39
2017-08-09T11:03:49.877Z,25.15
2017-08-09T11:04:50.499Z,25.37
2017-08-09T11:05:50.176Z,25.61
2017-08-09T11:06:50.489Z,25.79
2017-08-09T11:07:50.184Z,26.11
2017-08-09T11:08:50.177Z,26.17
2017-08-09T11:09:50.170Z,25.99
2017-08-09T11:10:50.480Z,25.57
2017-08-09T11:11:50.313Z,25.61
2017-08-09T11:12:50.170Z,25.71
2017-08-09T11:13:50.486Z,25.19
2017-08-09T11:14:49.856Z,24.61
2017-08-09T11:15:50.162Z,24.38
2017-08-09T11:16:50.172Z,24.02
2017-08-09T11:17:50.168Z,23.83
2017-08-09T11:18:50.169Z,23.67
2017-08-09T11:19:50.471Z,23.52
2017-08-09T11:20:50.468Z,23.82
2017-08-09T11:21:50.161Z,24.14
2017-08-09T11:22:50.159Z,24.37
2017-08-09T11:23:50.151Z,24.2
2017-08-09T11:24:50.150Z,24.1
2017-08-09T11:25:50.175Z,24.49
2017-08-09T11:26:50.156Z,24.73
2017-08-09T11:27:50.462Z,25.07
2017-08-09T11:28:50.136Z,25.06
2017-08-09T11:29:50.455Z,25.27
2017-08-09T11:30:50.134Z,25.32
2017-08-09T11:31:50.459Z,25.37
2017-08-09T11:32:50.137Z,25.34
2017-08-09T11:33:50.138Z,25.74
2017-08-09T11:34:50.331Z,25.72
2017-08-09T11:35:50.139Z,25.68
2017-08-09T11:36:50.137Z,25.77
2017-08-09T11:37:50.129Z,25.71
2017-08-09T11:38:50.442Z,25.69
2017-08-09T11:39:50.467Z,25.94
2017-08-09T11:40:49.820Z,25.89
2017-08-09T11:41:50.446Z,26.08
2017-08-09T11:42:50.127Z,26.27
2017-08-09T11:43:50.137Z,26.5
2017-08-09T11:44:50.445Z,26.76
2017-08-09T11:45:50.135Z,26.8
2017-08-09T11:46:50.135Z,26.84
2017-08-09T11:47:50.144Z,26.84
2017-08-09T11:48:50.140Z,26.57
2017-08-09T11:49:50.449Z,26.31
2017-08-09T11:50:50.139Z,26.12
2017-08-09T11:51:50.455Z,25.59
2017-08-09T11:52:50.143Z,25.02
2017-08-09T11:53:50.143Z,24.8
2017-08-09T11:54:50.149Z,24.39
2017-08-09T11:55:50.459Z,24.82
2017-08-09T11:56:50.453Z,24.82
2017-08-09T11:57:50.469Z,24.79
2017-08-09T11:58:50.141Z,24.52
2017-08-09T11:59:50.145Z,24.42
2017-08-09T12:00:50.455Z,24.23
2017-08-09T12:01:50.145Z,24.38
2017-08-09T12:02:50.144Z,24.67
2017-08-09T12:03:50.139Z,24.69
2017-08-09T12:04:50.454Z,25.06
2017-08-09T12:05:50.143Z,25.72
2017-08-09T12:06:50.454Z,26.28
2017-08-09T12:07:50.135Z,26.44
2017-08-09T12:08:50.453Z,26.98
2017-08-09T12:09:50.451Z,26.8
2017-08-09T12:10:50.139Z,27.01
2017-08-09T12:11:50.140Z,27.54
2017-08-09T12:12:50.449Z,27.71
2017-08-09T12:13:50.148Z,27.43
2017-08-09T12:14:50.150Z,26.89
2017-08-09T12:15:50.197Z,26.39
2017-08-09T12:16:50.149Z,25.8
2017-08-09T12:17:49.836Z,25.34
2017-08-09T12:18:50.142Z,25.01
2017-08-09T12:19:49.832Z,24.75
2017-08-09T12:20:50.460Z,24.52
2017-08-09T12:21:50.456Z,24.8
2017-08-09T12:22:50.147Z,24.44
2017-08-09T12:23:49.831Z,24.35
2017-08-09T12:24:50.450Z,24.2
2017-08-09T12:25:50.500Z,24.47
2017-08-09T12:26:50.136Z,24.95
2017-08-09T12:27:50.144Z,25.16
2017-08-09T12:28:50.443Z,25.56
2017-08-09T12:29:50.128Z,25.97
2017-08-09T12:30:50.464Z,26.29
2017-08-09T12:31:50.147Z,26.58
2017-08-09T12:32:50.449Z,26.74
2017-08-09T12:33:50.441Z,26.87
2017-08-09T12:34:50.445Z,26.74
2017-08-09T12:35:49.814Z,26.59
2017-08-09T12:36:50.437Z,26.96
2017-08-09T12:37:50.145Z,27.29
2017-08-09T12:38:50.130Z,27.38
2017-08-09T12:39:50.455Z,27.2
2017-08-09T12:40:50.446Z,26.86
2017-08-09T12:41:50.441Z,26.47
2017-08-09T12:42:50.131Z,25.8
2017-08-09T12:43:50.444Z,25.56
2017-08-09T12:44:49.815Z,25.43
2017-08-09T12:45:50.130Z,25.56
2017-08-09T12:46:50.145Z,25.49
2017-08-09T12:47:50.129Z,25.75
2017-08-09T12:48:50.124Z,26.02
2017-08-09T12:49:49.812Z,26.24
2017-08-09T12:50:49.810Z,26.36
2017-08-09T12:51:50.125Z,26.4
2017-08-09T12:52:50.490Z,26.47
2017-08-09T12:53:50.143Z,26.65
2017-08-09T12:54:50.448Z,26.8
2017-08-09T12:55:50.438Z,27.13